Time;durP1;ratioP1;P1;durP2;ratioP2;P2;SDS_P1;SDS_P2;PMS_P1;PMS_P2;Temp;Humidity;BMP_temperature;BMP_pressure;BME280_temperature;BME280_humidity;BME280_pressure;Samples;Min_cycle;Max_cycle;Signal;HPM_P1;HPM_P2
2023/06/17 00:00:06;;;;;;;;;;;;;;;20.73;100.00;98693.16;341006;29;885;-76
2023/06/17 00:00:16;;;;;;;;;;;;;;;20.74;100.00;98694.84;337063;29;1274;-76
2023/06/17 00:00:28;;;;;;;;;;;;;;;20.72;100.00;98688.84;337760;29;1616;-76
2023/06/17 00:00:38;;;;;;;;;;;;;;;20.73;100.00;98693.16;336119;29;1316;-76
2023/06/17 00:00:48;;;;;;;;;;;;;;;20.73;100.00;98697.66;334259;29;1910;-76
2023/06/17 00:00:58;;;;;;;;;;;;;;;20.74;100.00;98694.84;335616;29;1106;-76
2023/06/17 00:01:09;;;;;;;;;;;;;;;20.71;100.00;98695.13;333172;29;4003;-76
2023/06/17 00:01:19;;;;;;;;;;;;;;;20.69;100.00;98690.97;329500;29;3099;-75
2023/06/17 00:01:29;;;;;;;;;;;;;;;20.70;100.00;98693.47;337434;29;3461;-75
2023/06/17 00:01:42;;;;;;;;;;;;;;;20.72;100.00;98696.81;336016;29;5439;-75
2023/06/17 00:01:52;;;;;;;;;;;;;;;20.70;100.00;98688.16;340499;29;3499;-75
2023/06/17 00:02:02;;;;;;;;;;;;;;;20.69;100.00;98690.97;338930;29;914;-75
2023/06/17 00:02:12;;;;;;;;;;;;;;;20.69;100.00;98686.47;335584;29;2130;-75
2023/06/17 00:02:23;;;;;;;;;;;;;;;20.71;100.00;98695.13;331332;29;2166;-75
2023/06/17 00:02:33;;;;;;;;;;;;;;;20.73;100.00;98695.81;329469;30;1155;-75
2023/06/17 00:02:44;;;;;;;;;;;;;;;20.75;100.00;98691.19;330091;29;1807;-75
2023/06/17 00:02:54;;;;;;;;;;;;;;;20.75;100.00;98688.53;328528;29;2032;-75
2023/06/17 00:03:04;;;;;;;;;;;;;;;20.78;100.00;98693.56;326849;30;1320;-75
2023/06/17 00:03:14;;;;;;;;;;;;;;;20.80;100.00;98694.22;328095;30;1261;-75
2023/06/17 00:03:25;;;;;;;;;;;;;;;20.78;100.00;98696.22;328805;30;918;-75
2023/06/17 00:03:35;;;;;;;;;;;;;;;20.76;100.00;98698.19;328443;29;4130;-75
2023/06/17 00:03:46;;;;;;;;;;;;;;;20.71;100.00;98695.13;326786;30;4892;-76
2023/06/17 00:03:57;;;;;;;;;;;;;;;20.66;100.00;98697.41;328775;29;5588;-76
2023/06/17 00:04:07;;;;;;;;;;;;;;;20.64;100.00;98694.06;327764;29;3136;-76
2023/06/17 00:04:17;;;;;;;;;;;;;;;20.61;100.00;98691.69;329319;30;3368;-75
2023/06/17 00:04:27;;;;;;;;;;;;;;;20.61;100.00;98697.00;327010;29;2613;-75
2023/06/17 00:04:38;;;;;;;;;;;;;;;20.56;100.00;98691.31;326632;29;2612;-75
2023/06/17 00:04:48;;;;;;;;;;;;;;;20.54;100.00;98690.63;327134;30;884;-75
2023/06/17 00:04:58;;;;;;;;;;;;;;;20.54;100.00;98687.94;327446;30;2487;-75
2023/06/17 00:05:09;;;;;;;;;;;;;;;20.56;100.00;98691.31;325420;30;2211;-76
2023/06/17 00:05:20;;;;;;;;;;;;;;;20.53;100.00;98694.25;326930;30;1473;-76
2023/06/17 00:05:30;;;;;;;;;;;;;;;20.53;100.00;98689.78;325842;30;867;-76
2023/06/17 00:05:41;;;;;;;;;;;;;;;20.51;100.00;98693.56;326770;30;963;-75
2023/06/17 00:05:52;;;;;;;;;;;;;;;20.49;100.00;98692.88;326478;30;1819;-75
2023/06/17 00:06:02;;;;;;;;;;;;;;;20.46;100.00;98691.34;326905;30;1242;-75
2023/06/17 00:06:12;;;;;;;;;;;;;;;20.46;100.00;98691.34;325149;30;2482;-75
2023/06/17 00:06:22;;;;;;;;;;;;;;;20.48;100.00;98693.84;324023;30;3019;-75
2023/06/17 00:06:33;;;;;;;;;;;;;;;20.49;100.00;98690.22;324754;30;770;-75
2023/06/17 00:06:43;;;;;;;;;;;;;;;20.50;100.00;98691.88;324020;30;3445;-75
2023/06/17 00:06:54;;;;;;;;;;;;;;;20.51;100.00;98693.56;325429;29;3347;-75
2023/06/17 00:07:04;;;;;;;;;;;;;;;20.52;100.00;98688.09;324597;30;1338;-75
2023/06/17 00:07:14;;;;;;;;;;;;;;;20.52;100.00;98692.59;321015;30;1437;-75
2023/06/17 00:07:25;;;;;;;;;;;;;;;20.52;100.00;98695.25;320217;30;3304;-75
2023/06/17 00:07:35;;;;;;;;;;;;;;;20.51;100.00;98688.25;318601;30;2280;-75
2023/06/17 00:07:45;;;;;;;;;;;;;;;20.47;100.00;98697.50;323402;30;1340;-75
2023/06/17 00:07:56;;;;;;;;;;;;;;;20.44;100.00;98692.47;321477;30;1886;-75
2023/06/17 00:08:06;;;;;;;;;;;;;;;20.44;100.00;98695.97;322257;30;2570;-75
2023/06/17 00:08:16;;;;;;;;;;;;;;;20.44;100.00;98688.00;324649;30;896;-75
2023/06/17 00:08:26;;;;;;;;;;;;;;;20.46;100.00;98686.03;321982;30;3192;-75
2023/06/17 00:08:37;;;;;;;;;;;;;;;20.47;100.00;98692.19;321578;30;3687;-75
2023/06/17 00:08:47;;;;;;;;;;;;;;;20.49;100.00;98692.88;322005;30;987;-75
2023/06/17 00:08:59;;;;;;;;;;;;;;;20.50;100.00;98697.22;317385;30;5337;-75
2023/06/17 00:09:09;;;;;;;;;;;;;;;20.52;100.00;98695.25;318959;30;4717;-75
2023/06/17 00:09:20;;;;;;;;;;;;;;;20.53;100.00;98692.44;321380;30;4188;-75
2023/06/17 00:09:30;;;;;;;;;;;;;;;20.55;100.00;98689.63;319891;30;857;-75
2023/06/17 00:09:44;;;;;;;;;;;;;;;20.55;100.00;98694.94;318449;30;4242;-75
2023/06/17 00:09:54;;;;;;;;;;;;;;;20.58;100.00;98699.97;318528;30;2873;-75
2023/06/17 00:10:05;;;;;;;;;;;;;;;20.59;100.00;98697.16;316696;31;3090;-75
2023/06/17 00:10:15;;;;;;;;;;;;;;;20.61;100.00;98697.00;315362;31;904;-75
2023/06/17 00:10:25;;;;;;;;;;;;;;;20.63;100.00;98691.53;314213;31;4166;-75
2023/06/17 00:10:36;;;;;;;;;;;;;;;20.63;100.00;98697.69;313005;31;4972;-74
2023/06/17 00:10:46;;;;;;;;;;;;;;;20.62;100.00;98701.34;311005;31;5140;-73
2023/06/17 00:10:56;;;;;;;;;;;;;;;20.63;100.00;98697.69;311137;31;5313;-73
2023/06/17 00:11:06;;;;;;;;;;;;;;;20.64;100.00;98704.69;309460;31;6872;-75
2023/06/17 00:11:17;;;;;;;;;;;;;;;20.65;100.00;98690.41;315121;31;5660;-74
2023/06/17 00:11:28;;;;;;;;;;;;;;;20.66;100.00;98697.41;310924;31;6639;-74
2023/06/17 00:11:39;;;;;;;;;;;;;;;20.68;100.00;98695.44;309632;31;5867;-74
2023/06/17 00:11:51;;;;;;;;;;;;;;;20.69;100.00;98690.97;309540;31;1528;-74
2023/06/17 00:12:02;;;;;;;;;;;;;;;20.69;100.00;98697.09;302270;32;809;-74
2023/06/17 00:12:12;;;;;;;;;;;;;;;20.71;100.00;98694.31;301776;32;4344;-74
2023/06/17 00:12:24;;;;;;;;;;;;;;;20.71;100.00;98695.13;299690;32;5061;-76
2023/06/17 00:12:36;;;;;;;;;;;;;;;20.71;100.00;98695.13;300770;32;6212;-75
2023/06/17 00:12:48;;;;;;;;;;;;;;;20.72;100.00;98696.81;298951;33;888;-75
2023/06/17 00:12:58;;;;;;;;;;;;;;;20.73;100.00;98690.50;299428;32;6938;-75
2023/06/17 00:13:08;;;;;;;;;;;;;;;20.75;100.00;98693.84;296816;33;7685;-75
2023/06/17 00:13:19;;;;;;;;;;;;;;;20.75;100.00;98691.19;296268;33;881;-75
2023/06/17 00:13:29;;;;;;;;;;;;;;;20.75;100.00;98685.88;295596;33;9242;-75
2023/06/17 00:15:28;;;;;;;;;;;;;;;20.78;100.00;98693.56;2493989;27;19933;-76
2023/06/17 00:15:42;;;;;;;;;;;;;;;20.73;100.00;98693.16;354699;27;855;-76
2023/06/17 00:15:56;;;;;;;;;;;;;;;20.68;100.00;98690.13;351761;28;1463;-75
2023/06/17 00:16:06;;;;;;;;;;;;;;;20.65;100.00;98690.41;350553;28;932;-75
2023/06/17 00:16:17;;;;;;;;;;;;;;;20.65;100.00;98692.25;349055;28;934;-75
2023/06/17 00:16:27;;;;;;;;;;;;;;;20.64;100.00;98687.91;349088;28;871;-75
2023/06/17 00:16:43;;;;;;;;;;;;;;;20.62;100.00;98690.72;349151;28;888;-75
2023/06/17 00:16:53;;;;;;;;;;;;;;;20.55;100.00;98689.63;350500;28;753;-76
2023/06/17 00:17:04;;;;;;;;;;;;;;;20.48;100.00;98694.69;349392;28;1206;-74
2023/06/17 00:17:14;;;;;;;;;;;;;;;20.41;100.00;98692.78;350489;28;871;-75
2023/06/17 00:17:25;;;;;;;;;;;;;;;20.36;100.00;98687.88;348905;28;1312;-75
2023/06/17 00:17:35;;;;;;;;;;;;;;;20.36;100.00;98685.22;349146;28;797;-76
2023/06/17 00:17:46;;;;;;;;;;;;;;;20.37;100.00;98686.03;348945;28;1301;-75
2023/06/17 00:17:56;;;;;;;;;;;;;;;20.36;100.00;98684.41;347746;28;991;-75
2023/06/17 00:18:07;;;;;;;;;;;;;;;20.36;100.00;98687.88;349038;28;1319;-75
2023/06/17 00:18:19;;;;;;;;;;;;;;;20.37;100.00;98680.72;347643;28;1384;-75
2023/06/17 00:18:32;;;;;;;;;;;;;;;20.36;100.00;98684.41;344969;28;781;-75
2023/06/17 00:18:43;;;;;;;;;;;;;;;20.35;100.00;98686.22;344945;28;1342;-75
2023/06/17 00:18:53;;;;;;;;;;;;;;;20.38;100.00;98683.28;346204;28;1240;-75
2023/06/17 00:19:04;;;;;;;;;;;;;;;20.40;100.00;98683.13;346845;28;821;-75
2023/06/17 00:19:17;;;;;;;;;;;;;;;20.41;100.00;98692.78;349005;28;1158;-75
2023/06/17 00:19:28;;;;;;;;;;;;;;;20.39;100.00;98684.94;348942;28;1535;-75
2023/06/17 00:19:40;;;;;;;;;;;;;;;20.39;100.00;98684.09;348566;28;844;-75
2023/06/17 00:19:50;;;;;;;;;;;;;;;20.39;100.00;98684.94;347072;28;4171;-75
2023/06/17 00:20:11;;;;;;;;;;;;;;;20.41;100.00;98687.47;345099;28;5148;-75
2023/06/17 00:20:23;;;;;;;;;;;;;;;20.44;100.00;98688.00;342957;28;4849;-75
2023/06/17 00:20:36;;;;;;;;;;;;;;;20.46;100.00;98687.84;343533;28;5320;-75
2023/06/17 00:20:46;;;;;;;;;;;;;;;20.48;100.00;98685.88;343502;28;1329;-75
2023/06/17 00:20:57;;;;;;;;;;;;;;;20.49;100.00;98691.06;344868;28;3383;-75
2023/06/17 00:21:08;;;;;;;;;;;;;;;20.50;100.00;98692.72;343771;28;1400;-75
2023/06/17 00:21:19;;;;;;;;;;;;;;;20.52;100.00;98687.25;343951;28;1144;-75
2023/06/17 00:21:29;;;;;;;;;;;;;;;20.55;100.00;98689.63;346423;28;749;-75
2023/06/17 00:21:40;;;;;;;;;;;;;;;20.53;100.00;98686.28;346104;28;944;-75
2023/06/17 00:21:52;;;;;;;;;;;;;;;20.52;100.00;98688.09;346264;28;1022;-75
2023/06/17 00:22:02;;;;;;;;;;;;;;;20.51;100.00;98690.91;344881;28;1092;-75
2023/06/17 00:22:13;;;;;;;;;;;;;;;20.50;100.00;98691.88;342266;28;1312;-75
2023/06/17 00:22:25;;;;;;;;;;;;;;;20.49;100.00;98692.88;342188;28;795;-75
2023/06/17 00:22:35;;;;;;;;;;;;;;;20.50;100.00;98686.56;343667;28;837;-75
2023/06/17 00:22:46;;;;;;;;;;;;;;;20.52;100.00;98684.59;343838;28;1344;-75
2023/06/17 00:22:57;;;;;;;;;;;;;;;20.54;100.00;98694.09;346284;28;1426;-75
2023/06/17 00:23:08;;;;;;;;;;;;;;;20.56;100.00;98691.31;347573;28;1185;-75
2023/06/17 00:23:19;;;;;;;;;;;;;;;20.56;100.00;98696.63;347998;28;1548;-75
2023/06/17 00:23:30;;;;;;;;;;;;;;;20.56;100.00;98693.97;347714;28;832;-75
2023/06/17 00:23:41;;;;;;;;;;;;;;;20.55;100.00;98692.28;344105;28;1455;-75
2023/06/17 00:23:51;;;;;;;;;;;;;;;20.56;100.00;98685.97;344799;28;1340;-75
2023/06/17 00:24:01;;;;;;;;;;;;;;;20.58;100.00;98694.66;342062;28;1441;-75
2023/06/17 00:24:12;;;;;;;;;;;;;;;20.59;100.00;98688.34;343746;28;833;-74
2023/06/17 00:24:22;;;;;;;;;;;;;;;20.58;100.00;98689.34;340238;28;1246;-74
2023/06/17 00:24:32;;;;;;;;;;;;;;;20.52;100.00;98685.44;338791;28;1279;-74
2023/06/17 00:24:43;;;;;;;;;;;;;;;20.51;100.00;98688.25;343541;28;1316;-74
2023/06/17 00:24:53;;;;;;;;;;;;;;;20.49;100.00;98687.56;341707;28;1717;-74
2023/06/17 00:25:03;;;;;;;;;;;;;;;20.47;100.00;98689.53;342254;28;1292;-74
2023/06/17 00:25:14;;;;;;;;;;;;;;;20.44;100.00;98692.47;344901;28;1533;-74
2023/06/17 00:25:24;;;;;;;;;;;;;;;20.43;100.00;98685.50;343344;28;1381;-75
2023/06/17 00:25:34;;;;;;;;;;;;;;;20.40;100.00;98685.78;342487;28;2720;-75
2023/06/17 00:25:45;;;;;;;;;;;;;;;20.41;100.00;98690.13;342413;28;808;-75
2023/06/17 00:25:55;;;;;;;;;;;;;;;20.42;100.00;98689.97;340001;29;1842;-75
2023/06/17 00:26:05;;;;;;;;;;;;;;;20.45;100.00;98686.19;340858;28;1989;-75
2023/06/17 00:26:15;;;;;;;;;;;;;;;20.48;100.00;98688.53;338237;29;1431;-75
2023/06/17 00:26:26;;;;;;;;;;;;;;;20.51;100.00;98690.91;336463;29;1896;-75
2023/06/17 00:26:36;;;;;;;;;;;;;;;20.51;100.00;98683.75;337630;29;1471;-75
2023/06/17 00:26:46;;;;;;;;;;;;;;;20.53;100.00;98691.59;338319;29;833;-74
2023/06/17 00:26:56;;;;;;;;;;;;;;;20.52;100.00;98689.91;339521;29;1421;-74
2023/06/17 00:27:07;;;;;;;;;;;;;;;20.51;100.00;98682.94;340305;28;1387;-74
2023/06/17 00:27:17;;;;;;;;;;;;;;;20.47;100.00;98685.03;337622;29;2124;-74
2023/06/17 00:27:27;;;;;;;;;;;;;;;20.45;100.00;98688.84;329963;29;1791;-74
2023/06/17 00:27:38;;;;;;;;;;;;;;;20.43;100.00;98682.81;332775;29;2093;-74
2023/06/17 00:27:49;;;;;;;;;;;;;;;20.42;100.00;98684.66;333681;29;2307;-74
2023/06/17 00:27:59;;;;;;;;;;;;;;;20.41;100.00;98687.47;333137;29;1316;-74
2023/06/17 00:28:09;;;;;;;;;;;;;;;20.41;100.00;98687.47;331391;29;2353;-74
2023/06/17 00:28:19;;;;;;;;;;;;;;;20.42;100.00;98689.13;329513;29;2605;-74
2023/06/17 00:28:29;;;;;;;;;;;;;;;20.42;100.00;98683.81;329285;30;1383;-73
2023/06/17 00:28:40;;;;;;;;;;;;;;;20.42;100.00;98681.16;330059;29;2468;-73
2023/06/17 00:28:50;;;;;;;;;;;;;;;20.43;100.00;98688.16;330298;29;1612;-73
2023/06/17 00:29:00;;;;;;;;;;;;;;;20.43;100.00;98681.00;329495;30;1160;-73
2023/06/17 00:29:11;;;;;;;;;;;;;;;20.45;100.00;98688.84;328091;30;898;-73
2023/06/17 00:29:21;;;;;;;;;;;;;;;20.44;100.00;98688.00;326890;30;1940;-73
2023/06/17 00:29:31;;;;;;;;;;;;;;;20.44;100.00;98687.16;325114;30;2324;-74
2023/06/17 00:29:41;;;;;;;;;;;;;;;20.40;100.00;98683.13;323343;30;1575;-76
2023/06/17 00:29:52;;;;;;;;;;;;;;;20.39;100.00;98684.94;320360;30;2812;-75
2023/06/17 00:30:03;;;;;;;;;;;;;;;20.40;100.00;98685.78;319277;30;3390;-77
2023/06/17 00:30:13;;;;;;;;;;;;;;;20.41;100.00;98687.47;320249;30;1399;-76
2023/06/17 00:30:23;;;;;;;;;;;;;;;20.39;100.00;98681.44;318322;30;3441;-76
2023/06/17 00:30:33;;;;;;;;;;;;;;;20.39;100.00;98681.44;316574;30;3614;-76
2023/06/17 00:30:46;;;;;;;;;;;;;;;20.37;100.00;98691.34;319771;30;1490;-76
2023/06/17 00:30:57;;;;;;;;;;;;;;;20.37;100.00;98688.69;318852;31;840;-75
2023/06/17 00:31:07;;;;;;;;;;;;;;;20.36;100.00;98679.09;317713;31;2274;-75
2023/06/17 00:31:17;;;;;;;;;;;;;;;20.35;100.00;98682.72;317683;30;2058;-75
2023/06/17 00:31:27;;;;;;;;;;;;;;;20.34;100.00;98686.38;320022;30;833;-75
2023/06/17 00:31:38;;;;;;;;;;;;;;;20.32;100.00;98685.69;315343;30;2652;-75
2023/06/17 00:31:48;;;;;;;;;;;;;;;20.30;100.00;98687.63;312195;31;3481;-75
2023/06/17 00:31:58;;;;;;;;;;;;;;;20.26;100.00;98684.44;311213;31;1307;-75
2023/06/17 00:32:08;;;;;;;;;;;;;;;20.23;100.00;98684.72;307071;31;4063;-76
2023/06/17 00:32:18;;;;;;;;;;;;;;;20.22;100.00;98678.56;306920;31;4711;-76
2023/06/17 00:32:29;;;;;;;;;;;;;;;20.21;100.00;98686.69;305342;32;1316;-75
2023/06/17 00:32:40;;;;;;;;;;;;;;;20.23;100.00;98687.38;308175;31;4870;-74
2023/06/17 00:32:50;;;;;;;;;;;;;;;20.23;100.00;98690.88;306925;32;4344;-75
2023/06/17 00:33:01;;;;;;;;;;;;;;;20.22;100.00;98686.56;306421;32;1423;-75
2023/06/17 00:33:11;;;;;;;;;;;;;;;20.21;100.00;98681.38;303585;32;4182;-75
2023/06/17 00:33:21;;;;;;;;;;;;;;;20.22;100.00;98683.88;301953;32;3131;-75
2023/06/17 00:33:31;;;;;;;;;;;;;;;20.24;100.00;98684.59;301350;32;3476;-76
2023/06/17 00:33:42;;;;;;;;;;;;;;;20.25;100.00;98688.91;302318;32;875;-76
2023/06/17 00:33:52;;;;;;;;;;;;;;;20.27;100.00;98691.44;299860;32;3989;-76
2023/06/17 00:34:02;;;;;;;;;;;;;;;20.27;100.00;98686.94;299423;32;5177;-75
2023/06/17 00:34:12;;;;;;;;;;;;;;;20.30;100.00;98685.81;300266;32;920;-74
2023/06/17 00:34:23;;;;;;;;;;;;;;;20.31;100.00;98682.19;295148;33;5512;-73
2023/06/17 00:34:33;;;;;;;;;;;;;;;20.34;100.00;98686.38;293605;32;6431;-75
2023/06/17 00:34:43;;;;;;;;;;;;;;;20.32;100.00;98689.16;295344;33;2986;-74
2023/06/17 00:34:53;;;;;;;;;;;;;;;20.29;100.00;98681.50;294688;33;6952;-74
2023/06/17 00:35:04;;;;;;;;;;;;;;;20.29;100.00;98684.16;294178;33;6441;-75
2023/06/17 00:35:15;;;;;;;;;;;;;;;20.30;100.00;98683.16;294633;33;1386;-75
2023/06/17 00:35:25;;;;;;;;;;;;;;;20.31;100.00;98684.84;295099;33;6173;-74
2023/06/17 00:35:35;;;;;;;;;;;;;;;20.32;100.00;98686.50;293541;33;4562;-74
2023/06/17 00:35:45;;;;;;;;;;;;;;;20.34;100.00;98681.06;292287;33;847;-74
2023/06/17 00:35:56;;;;;;;;;;;;;;;20.34;100.00;98686.38;293056;33;5450;-74
2023/06/17 00:36:06;;;;;;;;;;;;;;;20.31;100.00;98684.84;292045;33;6139;-74
2023/06/17 00:36:16;;;;;;;;;;;;;;;20.29;100.00;98691.28;292559;33;4187;-74
2023/06/17 00:36:26;;;;;;;;;;;;;;;20.30;100.00;98685.81;290929;34;1386;-74
2023/06/17 00:36:37;;;;;;;;;;;;;;;20.30;100.00;98684.97;290105;33;7969;-74
2023/06/17 00:36:47;;;;;;;;;;;;;;;20.29;100.00;98685.97;289519;33;10258;-74
2023/06/17 00:36:57;;;;;;;;;;;;;;;20.25;100.00;98685.41;290219;34;1300;-74
2023/06/17 00:37:07;;;;;;;;;;;;;;;20.24;100.00;98681.94;288655;34;9841;-74
2023/06/17 00:37:19;;;;;;;;;;;;;;;20.24;100.00;98679.28;287725;34;9202;-75
2023/06/17 00:37:29;;;;;;;;;;;;;;;20.25;100.00;98683.59;289437;34;843;-75
2023/06/17 00:39:23;;;;;;;;;;;;;;;20.31;100.00;98681.34;2494500;27;19936;-76
2023/06/17 00:39:33;;;;;;;;;;;;;;;20.33;100.00;98684.69;356258;27;834;-75
2023/06/17 00:39:44;;;;;;;;;;;;;;;20.34;100.00;98681.06;353197;28;1446;-75
2023/06/17 00:39:54;;;;;;;;;;;;;;;20.37;100.00;98686.03;351858;28;1321;-75
2023/06/17 00:40:08;;;;;;;;;;;;;;;20.39;100.00;98689.41;350348;28;1341;-75
2023/06/17 00:40:18;;;;;;;;;;;;;;;20.40;100.00;98686.63;349042;28;1414;-75
2023/06/17 00:40:28;;;;;;;;;;;;;;;20.42;100.00;98683.81;350355;28;1163;-75
2023/06/17 00:40:38;;;;;;;;;;;;;;;20.44;100.00;98687.16;349047;28;946;-74
2023/06/17 00:40:49;;;;;;;;;;;;;;;20.45;100.00;98689.66;351803;28;1417;-74
2023/06/17 00:40:59;;;;;;;;;;;;;;;20.48;100.00;98688.53;351743;28;1306;-74
2023/06/17 00:41:09;;;;;;;;;;;;;;;20.49;100.00;98687.56;351889;28;815;-74
2023/06/17 00:41:20;;;;;;;;;;;;;;;20.51;100.00;98691.75;349017;28;1218;-75
2023/06/17 00:41:30;;;;;;;;;;;;;;;20.51;100.00;98689.09;347653;28;855;-75
2023/06/17 00:41:40;;;;;;;;;;;;;;;20.53;100.00;98691.59;347569;28;1236;-75
2023/06/17 00:41:50;;;;;;;;;;;;;;;20.53;100.00;98687.13;347705;28;878;-75
2023/06/17 00:42:01;;;;;;;;;;;;;;;20.56;100.00;98688.63;349108;28;1132;-75
2023/06/17 00:42:14;;;;;;;;;;;;;;;20.56;100.00;98692.13;349106;28;1221;-75
2023/06/17 00:42:24;;;;;;;;;;;;;;;20.58;100.00;98694.66;347753;28;769;-75
2023/06/17 00:42:35;;;;;;;;;;;;;;;20.58;100.00;98689.34;347694;28;928;-75
2023/06/17 00:42:45;;;;;;;;;;;;;;;20.60;100.00;98692.69;347979;28;1237;-75
2023/06/17 00:42:55;;;;;;;;;;;;;;;20.61;100.00;98690.84;347641;28;1280;-75
2023/06/17 00:43:05;;;;;;;;;;;;;;;20.59;100.00;98691.00;347668;28;919;-75
2023/06/17 00:43:16;;;;;;;;;;;;;;;20.57;100.00;98695.63;347072;28;1290;-75
2023/06/17 00:43:26;;;;;;;;;;;;;;;20.56;100.00;98696.63;347679;28;1532;-74
2023/06/17 00:43:36;;;;;;;;;;;;;;;20.55;100.00;98692.28;347446;28;1589;-74
2023/06/17 00:43:46;;;;;;;;;;;;;;;20.53;100.00;98686.28;348947;28;875;-74
2023/06/17 00:43:57;;;;;;;;;;;;;;;20.53;100.00;98687.13;347142;28;3936;-74
2023/06/17 00:44:07;;;;;;;;;;;;;;;20.54;100.00;98687.94;343780;28;4975;-74
2023/06/17 00:44:17;;;;;;;;;;;;;;;20.55;100.00;98695.78;344223;28;5458;-74
2023/06/17 00:44:27;;;;;;;;;;;;;;;20.56;100.00;98692.13;345867;28;3166;-74
2023/06/17 00:44:39;;;;;;;;;;;;;;;20.57;100.00;98687.66;345984;28;5533;-74
2023/06/17 00:44:50;;;;;;;;;;;;;;;20.58;100.00;98694.66;344846;28;836;-74
2023/06/17 00:45:00;;;;;;;;;;;;;;;20.58;100.00;98694.66;343042;28;1311;-74
2023/06/17 00:45:10;;;;;;;;;;;;;;;20.58;100.00;98694.66;346257;28;1239;-74
2023/06/17 00:45:20;;;;;;;;;;;;;;;20.59;100.00;98694.50;345616;28;1470;-74
2023/06/17 00:45:38;;;;;;;;;;;;;;;20.60;100.00;98695.34;345850;28;1328;-74
2023/06/17 00:45:48;;;;;;;;;;;;;;;20.60;100.00;98690.03;348408;28;1169;-76
2023/06/17 00:45:58;;;;;;;;;;;;;;;20.58;100.00;98689.34;347754;28;1215;-75
2023/06/17 00:46:27;;;;;;;;;;;;;;;20.54;100.00;98688.78;345180;28;1220;-75
2023/06/17 00:46:37;;;;;;;;;;;;;;;20.52;100.00;98689.91;342280;28;1338;-75
2023/06/17 00:46:50;;;;;;;;;;;;;;;20.53;100.00;98694.25;345557;28;1305;-75
2023/06/17 00:47:00;;;;;;;;;;;;;;;20.54;100.00;98696.75;347342;28;1098;-75
2023/06/17 00:47:11;;;;;;;;;;;;;;;20.53;100.00;98691.59;343672;28;852;-75
2023/06/17 00:47:21;;;;;;;;;;;;;;;20.52;100.00;98688.09;344621;28;1406;-75
2023/06/17 00:47:31;;;;;;;;;;;;;;;20.52;100.00;98692.59;342668;28;1391;-76
2023/06/17 00:47:41;;;;;;;;;;;;;;;20.48;100.00;98692.03;342439;28;1143;-75
2023/06/17 00:47:52;;;;;;;;;;;;;;;20.48;100.00;98697.34;338197;29;1163;-76
2023/06/17 00:48:02;;;;;;;;;;;;;;;20.47;100.00;98693.03;338824;29;1649;-76
2023/06/17 00:48:12;;;;;;;;;;;;;;;20.45;100.00;98695.00;338128;29;1974;-76
2023/06/17 00:48:23;;;;;;;;;;;;;;;20.45;100.00;98689.66;341019;29;742;-75
2023/06/17 00:48:33;;;;;;;;;;;;;;;20.47;100.00;98686.88;340604;29;872;-75
2023/06/17 00:48:44;;;;;;;;;;;;;;;20.45;100.00;98689.66;340965;28;1240;-75
2023/06/17 00:48:54;;;;;;;;;;;;;;;20.47;100.00;98689.53;339578;29;1501;-75
2023/06/17 00:49:04;;;;;;;;;;;;;;;20.47;100.00;98693.03;339539;29;895;-75
2023/06/17 00:49:15;;;;;;;;;;;;;;;20.47;100.00;98693.03;340077;29;1354;-75
2023/06/17 00:49:29;;;;;;;;;;;;;;;20.48;100.00;98686.72;338446;29;860;-75
2023/06/17 00:49:39;;;;;;;;;;;;;;;20.49;100.00;98691.06;333165;29;1367;-75
2023/06/17 00:49:50;;;;;;;;;;;;;;;20.49;100.00;98693.72;327503;29;1502;-75
2023/06/17 00:50:00;;;;;;;;;;;;;;;20.44;100.00;98692.47;327075;29;2161;-75
2023/06/17 00:50:14;;;;;;;;;;;;;;;20.39;100.00;98690.25;329479;30;1194;-75
2023/06/17 00:50:28;;;;;;;;;;;;;;;20.37;100.00;98691.34;328013;30;1393;-75
2023/06/17 00:50:39;;;;;;;;;;;;;;;20.36;100.00;98684.41;326994;30;1364;-75
2023/06/17 00:50:49;;;;;;;;;;;;;;;20.33;100.00;98684.69;324401;30;1334;-75
2023/06/17 00:51:02;;;;;;;;;;;;;;;20.31;100.00;98684.00;324243;30;1290;-75
2023/06/17 00:51:12;;;;;;;;;;;;;;;20.29;100.00;98686.81;324383;30;1648;-75
2023/06/17 00:51:22;;;;;;;;;;;;;;;20.30;100.00;98685.81;325679;30;1443;-75
2023/06/17 00:51:33;;;;;;;;;;;;;;;20.31;100.00;98691.97;325403;30;1961;-75
2023/06/17 00:51:44;;;;;;;;;;;;;;;20.30;100.00;98692.97;325143;30;2280;-75
2023/06/17 00:51:54;;;;;;;;;;;;;;;20.30;100.00;98693.78;323461;30;805;-75
2023/06/17 00:52:07;;;;;;;;;;;;;;;20.29;100.00;98692.13;322821;30;2285;-75
2023/06/17 00:52:18;;;;;;;;;;;;;;;20.30;100.00;98684.97;317094;31;2849;-75
2023/06/17 00:52:28;;;;;;;;;;;;;;;20.28;100.00;98693.09;317439;30;2668;-75
2023/06/17 00:52:39;;;;;;;;;;;;;;;20.25;100.00;98688.09;320850;30;1193;-75
2023/06/17 00:52:50;;;;;;;;;;;;;;;20.26;100.00;98690.59;322614;30;1507;-75
2023/06/17 00:53:01;;;;;;;;;;;;;;;20.28;100.00;98682.47;321484;30;1281;-75
2023/06/17 00:53:11;;;;;;;;;;;;;;;20.31;100.00;98684.00;319034;30;4282;-75
2023/06/17 00:53:21;;;;;;;;;;;;;;;20.31;100.00;98689.31;318260;30;3029;-75
2023/06/17 00:53:31;;;;;;;;;;;;;;;20.31;100.00;98684.84;317532;30;3329;-74
2023/06/17 00:53:41;;;;;;;;;;;;;;;20.30;100.00;98688.47;313612;31;4965;-74
2023/06/17 00:53:52;;;;;;;;;;;;;;;20.29;100.00;98683.31;317173;31;5591;-74
2023/06/17 00:54:02;;;;;;;;;;;;;;;20.26;100.00;98690.59;314006;31;2970;-74
2023/06/17 00:54:12;;;;;;;;;;;;;;;20.25;100.00;98688.91;311812;31;3191;-74
2023/06/17 00:54:24;;;;;;;;;;;;;;;20.25;100.00;98694.22;318743;31;1031;-74
2023/06/17 00:54:36;;;;;;;;;;;;;;;20.25;100.00;98688.91;319052;30;3597;-74
2023/06/17 00:54:47;;;;;;;;;;;;;;;20.25;100.00;98688.91;316543;31;3451;-74
2023/06/17 00:54:57;;;;;;;;;;;;;;;20.23;100.00;98690.88;313777;31;2105;-74
2023/06/17 00:55:08;;;;;;;;;;;;;;;20.24;100.00;98692.56;313043;31;1310;-74
2023/06/17 00:55:19;;;;;;;;;;;;;;;20.26;100.00;98690.59;313510;31;2059;-74
2023/06/17 00:55:30;;;;;;;;;;;;;;;20.25;100.00;98688.91;312562;31;2675;-74
2023/06/17 00:55:40;;;;;;;;;;;;;;;20.24;100.00;98689.06;310823;31;847;-74
2023/06/17 00:55:50;;;;;;;;;;;;;;;20.23;100.00;98685.56;310721;31;3355;-76
2023/06/17 00:56:01;;;;;;;;;;;;;;;20.24;100.00;98689.06;309984;31;4100;-76
2023/06/17 00:56:11;;;;;;;;;;;;;;;20.24;100.00;98689.06;311285;31;2019;-75
2023/06/17 00:56:25;;;;;;;;;;;;;;;20.20;100.00;98685.84;306812;31;4289;-75
2023/06/17 00:56:36;;;;;;;;;;;;;;;20.20;100.00;98685.03;309224;31;4575;-75
2023/06/17 00:56:46;;;;;;;;;;;;;;;20.23;100.00;98690.03;306293;32;4790;-75
2023/06/17 00:56:57;;;;;;;;;;;;;;;20.24;100.00;98692.56;307440;32;1051;-75
2023/06/17 00:57:09;;;;;;;;;;;;;;;20.26;100.00;98693.25;305524;32;856;-75
2023/06/17 00:57:19;;;;;;;;;;;;;;;20.27;100.00;98680.81;302782;32;2740;-75
2023/06/17 00:57:31;;;;;;;;;;;;;;;20.25;100.00;98688.91;303919;32;3164;-75
2023/06/17 00:57:41;;;;;;;;;;;;;;;20.22;100.00;98691.88;305454;32;938;-75
2023/06/17 00:57:53;;;;;;;;;;;;;;;20.21;100.00;98684.88;307555;32;4273;-75
2023/06/17 00:58:03;;;;;;;;;;;;;;;20.25;100.00;98688.09;307724;31;4896;-75
2023/06/17 00:58:13;;;;;;;;;;;;;;;20.27;100.00;98681.63;306239;32;6356;-75
2023/06/17 00:58:26;;;;;;;;;;;;;;;20.29;100.00;98683.31;305722;32;1868;-75
2023/06/17 00:58:36;;;;;;;;;;;;;;;20.29;100.00;98681.50;301834;32;7250;-74
2023/06/17 00:58:47;;;;;;;;;;;;;;;20.30;100.00;98687.63;300674;32;6625;-74
2023/06/17 00:58:57;;;;;;;;;;;;;;;20.32;100.00;98685.69;299159;32;1464;-74
2023/06/17 00:59:07;;;;;;;;;;;;;;;20.33;100.00;98682.03;298152;33;826;-74
2023/06/17 00:59:18;;;;;;;;;;;;;;;20.33;100.00;98680.22;298002;32;6288;-74
2023/06/17 00:59:29;;;;;;;;;;;;;;;20.33;100.00;98684.69;296964;32;3672;-74
2023/06/17 00:59:43;;;;;;;;;;;;;;;20.31;100.00;98682.19;299153;33;1280;-74
2023/06/17 00:59:53;;;;;;;;;;;;;;;20.31;100.00;98681.34;297252;33;1015;-74
2023/06/17 01:00:10;;;;;;;;;;;;;;;20.31;100.00;98681.34;294774;33;6610;-76
2023/06/17 01:00:20;;;;;;;;;;;;;;;20.29;100.00;98684.16;295161;33;7152;-75
2023/06/17 01:00:30;;;;;;;;;;;;;;;20.28;100.00;98682.47;295000;33;8301;-75